Time;durP1;ratioP1;P1;durP2;ratioP2;P2;SDS_P1;SDS_P2;PMS_P1;PMS_P2;Temp;Humidity;BMP_temperature;BMP_pressure;BME280_temperature;BME280_humidity;BME280_pressure;Samples;Min_cycle;Max_cycle;Signal;HPM_P1;HPM_P2
2020/12/04 00:01:20;;;;;;;11.73;7.77;;;6.60;90.80;;;;;;5034260;28;20445;-73
2020/12/04 00:03:46;;;;;;;11.20;8.80;;;6.50;90.90;;;;;;5034240;28;20435;-73
2020/12/04 00:06:13;;;;;;;11.80;8.90;;;6.50;91.00;;;;;;5034107;28;20477;-73
2020/12/04 00:08:39;;;;;;;13.07;8.80;;;6.40;90.90;;;;;;5033792;28;20944;-73
2020/12/04 00:11:06;;;;;;;9.00;7.90;;;6.40;91.10;;;;;;5034092;28;20446;-73
2020/12/04 00:13:32;;;;;;;11.40;7.80;;;6.40;91.30;;;;;;5034050;28;20493;-73
2020/12/04 00:16:00;;;;;;;12.13;8.97;;;6.40;91.50;;;;;;5033831;28;20482;-73
2020/12/04 00:18:26;;;;;;;10.53;8.23;;;6.40;91.60;;;;;;5033985;28;20443;-73
2020/12/04 00:20:52;;;;;;;10.23;8.40;;;6.40;91.70;;;;;;5033762;28;20439;-73
2020/12/04 00:23:19;;;;;;;10.83;8.80;;;6.50;91.70;;;;;;5033926;28;20450;-73
2020/12/04 00:25:45;;;;;;;9.90;8.40;;;6.40;91.70;;;;;;5033832;28;20455;-74
2020/12/04 00:28:11;;;;;;;10.60;7.80;;;6.50;91.80;;;;;;5033902;28;20449;-74
2020/12/04 00:30:38;;;;;;;14.47;8.40;;;6.50;91.80;;;;;;5033810;28;20446;-73
2020/12/04 00:33:04;;;;;;;9.93;8.43;;;6.40;91.60;;;;;;5033712;28;20446;-73
2020/12/04 00:35:30;;;;;;;7.37;6.50;;;6.40;91.70;;;;;;5033893;28;20873;-73
2020/12/04 00:37:57;;;;;;;10.50;8.00;;;6.50;91.90;;;;;;5033644;28;20442;-73
2020/12/04 00:40:24;;;;;;;9.00;7.30;;;6.40;91.70;;;;;;5033648;28;20465;-73
2020/12/04 00:42:50;;;;;;;8.53;7.63;;;6.40;91.70;;;;;;5033613;28;20835;-73
2020/12/04 00:45:16;;;;;;;12.33;7.67;;;6.50;91.70;;;;;;5033537;28;20462;-73
2020/12/04 00:47:43;;;;;;;8.73;7.00;;;6.50;91.80;;;;;;5033632;28;20450;-73
2020/12/04 00:50:10;;;;;;;9.50;6.87;;;6.50;91.80;;;;;;5033299;28;20908;-73
2020/12/04 00:52:36;;;;;;;8.23;6.20;;;6.60;91.70;;;;;;5033560;28;20443;-73
2020/12/04 00:55:02;;;;;;;9.40;7.60;;;6.60;91.70;;;;;;5033616;28;20470;-73
2020/12/04 00:57:29;;;;;;;8.07;7.03;;;6.60;91.70;;;;;;5033438;28;20442;-73
2020/12/04 00:59:55;;;;;;;9.03;7.10;;;6.60;91.60;;;;;;5033407;28;20439;-73
2020/12/04 01:02:21;;;;;;;9.50;6.80;;;6.70;91.40;;;;;;5033171;28;20454;-73
2020/12/04 01:04:48;;;;;;;7.03;6.00;;;6.60;91.40;;;;;;5033376;28;20442;-73
2020/12/04 01:07:14;;;;;;;7.40;6.57;;;6.60;91.40;;;;;;5033037;28;20438;-73
2020/12/04 01:09:40;;;;;;;8.63;6.60;;;6.60;91.20;;;;;;5033354;28;20821;-73
2020/12/04 01:12:06;;;;;;;8.70;6.70;;;6.60;91.20;;;;;;5033323;28;20453;-73
2020/12/04 01:14:33;;;;;;;8.10;6.60;;;6.70;91.40;;;;;;5033265;28;20482;-73
2020/12/04 01:17:00;;;;;;;8.10;6.93;;;6.70;91.30;;;;;;5033236;28;20477;-73
2020/12/04 01:19:26;;;;;;;8.10;6.90;;;6.60;91.20;;;;;;5033265;28;20474;-73
2020/12/04 01:21:52;;;;;;;7.10;6.40;;;6.60;91.30;;;;;;5033230;28;20512;-73
2020/12/04 01:24:19;;;;;;;9.30;7.10;;;6.60;91.20;;;;;;5032884;28;20443;-73
2020/12/04 01:26:45;;;;;;;6.43;5.70;;;6.60;91.10;;;;;;5033154;28;20468;-73
2020/12/04 01:29:11;;;;;;;7.97;7.00;;;6.60;91.10;;;;;;5033170;28;20439;-73
2020/12/04 01:31:38;;;;;;;7.10;6.00;;;6.70;91.20;;;;;;5033220;28;20438;-73
2020/12/04 01:34:04;;;;;;;7.70;6.00;;;6.70;91.20;;;;;;5037009;28;20446;-73
2020/12/04 01:36:31;;;;;;;7.37;5.97;;;6.70;91.10;;;;;;5036476;28;20489;-73
2020/12/04 01:38:57;;;;;;;6.47;5.80;;;6.70;91.10;;;;;;5036973;28;20438;-73
2020/12/04 01:41:23;;;;;;;7.47;6.20;;;6.70;91.10;;;;;;5036982;28;20438;-73
2020/12/04 01:43:49;;;;;;;6.60;5.90;;;6.70;91.00;;;;;;5036502;28;20449;-73
2020/12/04 01:46:16;;;;;;;6.90;5.90;;;6.70;91.00;;;;;;5036780;28;20466;-73
2020/12/04 01:48:44;;;;;;;8.40;6.37;;;6.70;90.90;;;;;;5036774;28;20438;-73
2020/12/04 01:51:11;;;;;;;6.27;5.67;;;6.70;90.80;;;;;;5036451;28;20947;-73
2020/12/04 01:53:40;;;;;;;8.30;6.63;;;6.70;90.80;;;;;;5036740;28;20442;-73
2020/12/04 01:56:06;;;;;;;8.60;6.60;;;6.70;90.80;;;;;;5036456;28;20492;-73
2020/12/04 01:58:33;;;;;;;7.73;6.93;;;6.70;90.80;;;;;;5036531;28;20438;-73
2020/12/04 02:00:59;;;;;;;7.40;5.97;;;6.70;90.70;;;;;;5036261;28;20900;-73
2020/12/04 02:03:25;;;;;;;8.27;6.30;;;6.70;90.50;;;;;;5036500;28;20442;-73
2020/12/04 02:05:58;;;;;;;7.43;6.27;;;6.70;90.60;;;;;;5036380;28;20454;-73
2020/12/04 02:08:30;;;;;;;9.20;6.50;;;6.70;90.50;;;;;;5036194;28;20430;-73
2020/12/04 02:11:04;;;;;;;12.20;6.37;;;6.70;90.40;;;;;;5036361;28;20454;-73
2020/12/04 02:13:32;;;;;;;6.30;5.70;;;6.70;90.50;;;;;;5036436;28;20458;-73
2020/12/04 02:15:59;;;;;;;7.33;6.40;;;6.60;90.20;;;;;;5035802;28;20486;-73
2020/12/04 02:18:25;;;;;;;6.73;6.00;;;6.60;90.40;;;;;;5036199;28;20439;-73
2020/12/04 02:21:00;;;;;;;8.70;6.00;;;6.60;90.50;;;;;;5036260;28;20442;-73
2020/12/04 02:23:26;;;;;;;8.03;6.77;;;6.60;90.60;;;;;;5035940;28;20876;-73
2020/12/04 02:25:56;;;;;;;7.57;6.57;;;6.50;90.50;;;;;;5036032;28;20462;-73
2020/12/04 02:28:31;;;;;;;8.73;6.60;;;6.50;90.40;;;;;;5036081;28;20903;-73
2020/12/04 02:30:57;;;;;;;7.07;6.37;;;6.40;90.10;;;;;;5036054;28;20426;-73
2020/12/04 02:33:24;;;;;;;6.87;6.17;;;6.40;90.30;;;;;;5035725;28;20923;-73
2020/12/04 02:35:50;;;;;;;6.77;5.93;;;6.30;90.40;;;;;;5035279;28;20999;-73
2020/12/04 02:38:17;;;;;;;8.00;6.80;;;6.30;90.30;;;;;;5035593;28;20858;-73
2020/12/04 02:40:43;;;;;;;7.83;7.13;;;6.30;90.30;;;;;;5036032;28;20442;-73
2020/12/04 02:43:09;;;;;;;7.77;6.53;;;6.30;90.40;;;;;;5034836;28;20827;-73
2020/12/04 02:45:36;;;;;;;8.50;6.80;;;6.30;90.70;;;;;;5035035;28;20458;-73
2020/12/04 02:48:02;;;;;;;7.33;6.57;;;6.30;90.60;;;;;;5035393;28;20446;-73
2020/12/04 02:50:28;;;;;;;8.10;6.97;;;6.20;90.40;;;;;;5035363;28;20940;-73
2020/12/04 02:52:54;;;;;;;7.17;6.10;;;6.20;90.30;;;;;;5035622;28;20442;-73
2020/12/04 02:55:21;;;;;;;7.53;6.33;;;6.20;90.40;;;;;;5035048;28;21025;-73
2020/12/04 02:57:47;;;;;;;7.40;6.50;;;6.10;90.90;;;;;;5035543;28;20439;-73
2020/12/04 03:00:14;;;;;;;8.97;6.57;;;6.20;90.60;;;;;;5035253;28;20949;-72
2020/12/04 03:02:40;;;;;;;8.10;6.67;;;6.10;90.60;;;;;;5035511;28;20442;-72
2020/12/04 03:05:06;;;;;;;7.53;6.23;;;6.00;90.70;;;;;;5035284;28;20439;-73
2020/12/04 03:07:32;;;;;;;7.80;6.87;;;6.10;90.60;;;;;;5035843;28;20442;-73
2020/12/04 03:09:58;;;;;;;7.57;6.10;;;6.10;90.70;;;;;;5035222;28;20493;-73
2020/12/04 03:12:25;;;;;;;8.23;6.23;;;6.10;90.80;;;;;;5035260;28;20442;-73
2020/12/04 03:14:52;;;;;;;6.17;5.57;;;6.10;90.90;;;;;;5035021;28;20482;-73
2020/12/04 03:17:18;;;;;;;6.70;5.87;;;6.10;90.70;;;;;;5035183;28;20495;-73
2020/12/04 03:19:44;;;;;;;8.73;5.70;;;6.00;90.80;;;;;;5035105;28;20438;-73
2020/12/04 03:22:10;;;;;;;8.77;6.33;;;5.90;90.90;;;;;;5035191;28;20454;-72
2020/12/04 03:24:36;;;;;;;7.50;5.90;;;6.00;91.00;;;;;;5035151;28;20492;-72
2020/12/04 03:27:03;;;;;;;6.80;6.10;;;5.90;90.80;;;;;;5034564;28;20805;-73
2020/12/04 03:29:30;;;;;;;6.60;5.90;;;5.90;90.80;;;;;;5034889;28;20445;-73
2020/12/04 03:31:56;;;;;;;6.17;5.57;;;6.00;91.00;;;;;;5034958;28;20446;-73
2020/12/04 03:34:23;;;;;;;7.43;5.93;;;6.00;91.10;;;;;;5035042;28;20438;-73
2020/12/04 03:36:49;;;;;;;7.50;6.00;;;6.00;91.10;;;;;;5034533;28;20490;-73
2020/12/04 03:39:15;;;;;;;7.40;6.20;;;6.10;91.10;;;;;;5034795;28;20517;-72
2020/12/04 03:41:41;;;;;;;7.27;6.57;;;6.10;90.90;;;;;;5034377;28;21007;-72
2020/12/04 03:44:07;;;;;;;5.90;5.30;;;6.20;90.80;;;;;;5034573;28;20446;-72
2020/12/04 03:46:34;;;;;;;6.40;5.50;;;6.20;90.70;;;;;;5034181;28;20994;-73
2020/12/04 03:49:00;;;;;;;5.67;5.10;;;6.20;90.80;;;;;;5034562;28;20442;-73
2020/12/04 03:51:27;;;;;;;6.20;5.60;;;6.20;90.80;;;;;;5034526;28;20442;-73
2020/12/04 03:53:53;;;;;;;6.77;5.50;;;6.20;90.90;;;;;;5034424;28;20442;-73
2020/12/04 03:56:19;;;;;;;6.33;5.73;;;6.30;90.90;;;;;;5033860;28;20482;-73
2020/12/04 03:58:45;;;;;;;6.10;5.50;;;6.30;90.70;;;;;;5034040;28;20962;-73
2020/12/04 04:01:12;;;;;;;7.20;6.50;;;6.30;90.50;;;;;;5034312;28;20446;-73
2020/12/04 04:03:39;;;;;;;6.53;5.40;;;6.40;90.70;;;;;;5033947;28;20940;-73
2020/12/04 04:06:05;;;;;;;7.23;6.23;;;6.40;90.70;;;;;;5034131;28;20454;-73
2020/12/04 04:08:31;;;;;;;6.30;5.60;;;6.40;90.50;;;;;;5034159;28;20450;-73
2020/12/04 04:10:59;;;;;;;10.73;5.63;;;6.50;90.50;;;;;;5034145;28;20423;-73
2020/12/04 04:13:25;;;;;;;5.53;5.00;;;6.50;90.50;;;;;;5034078;28;20442;-73
2020/12/04 04:15:52;;;;;;;5.93;5.30;;;6.50;90.60;;;;;;5033932;28;20490;-73
2020/12/04 04:18:18;;;;;;;8.60;5.50;;;6.50;90.40;;;;;;5034020;28;20442;-73
2020/12/04 04:20:46;;;;;;;6.23;5.60;;;6.40;90.40;;;;;;5033971;28;20441;-73
2020/12/04 04:23:12;;;;;;;5.27;4.77;;;6.50;90.60;;;;;;5033963;28;20446;-73
2020/12/04 04:25:38;;;;;;;5.63;4.67;;;6.50;90.50;;;;;;5033576;28;20971;-73
2020/12/04 04:28:10;;;;;;;5.50;4.97;;;6.50;90.70;;;;;;5033946;28;20442;-73
2020/12/04 04:30:36;;;;;;;5.70;5.13;;;6.60;90.80;;;;;;5033889;28;20466;-73
2020/12/04 04:33:02;;;;;;;5.70;5.10;;;6.60;90.70;;;;;;5034027;28;20442;-73
2020/12/04 04:35:28;;;;;;;4.97;4.47;;;6.70;90.60;;;;;;5033484;28;20508;-73
2020/12/04 04:37:55;;;;;;;5.50;4.80;;;6.70;90.50;;;;;;5033703;28;20472;-73
2020/12/04 04:40:23;;;;;;;5.83;4.97;;;6.70;90.50;;;;;;5033628;28;20454;-73
2020/12/04 04:42:49;;;;;;;5.63;4.97;;;6.70;90.40;;;;;;5033442;28;20936;-73
2020/12/04 04:45:16;;;;;;;5.10;4.60;;;6.80;90.50;;;;;;5033272;28;20466;-73
2020/12/04 04:47:44;;;;;;;5.10;4.60;;;6.80;90.40;;;;;;5033739;28;20500;-73
2020/12/04 04:50:10;;;;;;;4.60;4.20;;;6.80;90.40;;;;;;5033555;28;20450;-73
2020/12/04 04:52:37;;;;;;;4.57;4.17;;;6.80;90.50;;;;;;5033497;28;20443;-73
2020/12/04 04:55:05;;;;;;;5.90;4.73;;;6.80;90.40;;;;;;5033385;28;20485;-73
2020/12/04 04:57:31;;;;;;;6.40;5.80;;;6.80;90.40;;;;;;5033488;28;20450;-73
2020/12/04 04:59:57;;;;;;;4.80;4.30;;;6.70;90.40;;;;;;5033509;28;20442;-73
2020/12/04 05:02:24;;;;;;;8.23;4.23;;;6.80;90.50;;;;;;5033456;28;20481;-73
2020/12/04 05:04:51;;;;;;;4.47;4.07;;;6.80;90.60;;;;;;5033568;28;20450;-73
2020/12/04 05:07:24;;;;;;;5.10;4.60;;;6.80;90.50;;;;;;5034085;28;20962;-73
2020/12/04 05:09:51;;;;;;;4.77;4.37;;;6.80;90.50;;;;;;5037252;28;20481;-73
2020/12/04 05:12:18;;;;;;;5.50;5.00;;;6.80;90.60;;;;;;5037451;28;20793;-73
2020/12/04 05:14:44;;;;;;;5.00;4.50;;;6.80;90.60;;;;;;5037623;28;20443;-73
2020/12/04 05:17:11;;;;;;;5.27;4.40;;;6.80;90.50;;;;;;5037327;28;20496;-73
2020/12/04 05:19:39;;;;;;;4.37;3.97;;;6.80;90.60;;;;;;5037314;28;20453;-73
2020/12/04 05:22:09;;;;;;;4.70;4.20;;;6.80;90.70;;;;;;5037320;28;20442;-73
2020/12/04 05:24:36;;;;;;;7.13;4.07;;;6.80;90.70;;;;;;5037240;28;20445;-73
2020/12/04 05:27:24;;;;;;;7.27;5.20;;;6.80;90.70;;;;;;5036844;28;20976;-73
2020/12/04 05:29:52;;;;;;;6.83;5.43;;;6.80;90.70;;;;;;5037153;28;20438;-73
2020/12/04 05:32:19;;;;;;;5.13;4.60;;;6.80;90.70;;;;;;5037123;28;20442;-73
2020/12/04 05:34:45;;;;;;;4.83;4.37;;;6.90;90.70;;;;;;5036940;28;20789;-72
2020/12/04 05:37:12;;;;;;;5.63;4.67;;;6.90;90.60;;;;;;5036712;28;20478;-73
2020/12/04 05:39:42;;;;;;;4.90;4.03;;;6.90;90.70;;;;;;5036996;28;20473;-73
2020/12/04 05:42:09;;;;;;;4.23;3.83;;;6.90;90.70;;;;;;5036921;28;20449;-73
2020/12/04 05:44:51;;;;;;;5.07;4.17;;;6.90;90.70;;;;;;5036877;28;20443;-73
2020/12/04 05:47:19;;;;;;;5.23;4.73;;;6.90;90.70;;;;;;5036883;28;20504;-73
2020/12/04 05:49:45;;;;;;;4.70;3.93;;;6.90;91.00;;;;;;5037051;28;20553;-73
2020/12/04 05:52:14;;;;;;;5.27;4.00;;;6.80;90.40;;;;;;5036901;28;20516;-74
2020/12/04 05:54:42;;;;;;;5.90;4.10;;;6.80;90.60;;;;;;5036714;28;20527;-74
2020/12/04 05:57:08;;;;;;;4.90;3.80;;;6.80;90.60;;;;;;5036522;28;20546;-74
2020/12/04 05:59:40;;;;;;;3.93;3.53;;;6.90;90.70;;;;;;5036508;28;20899;-73
2020/12/04 06:02:12;;;;;;;4.37;3.97;;;6.80;90.60;;;;;;5036257;28;20437;-73
2020/12/04 06:04:39;;;;;;;3.37;3.07;;;6.80;90.70;;;;;;5036537;28;20422;-73
2020/12/04 06:07:06;;;;;;;5.30;3.77;;;6.80;90.70;;;;;;5036390;28;20467;-74
2020/12/04 06:09:33;;;;;;;4.30;3.30;;;6.90;90.70;;;;;;5036416;28;20449;-74
2020/12/04 06:11:59;;;;;;;3.47;3.13;;;6.90;90.60;;;;;;5036426;28;20469;-73
2020/12/04 06:14:26;;;;;;;4.20;3.57;;;6.90;90.70;;;;;;5036537;28;20438;-74
2020/12/04 06:17:10;;;;;;;4.03;3.33;;;6.80;90.60;;;;;;5036162;28;20524;-74
2020/12/04 06:19:38;;;;;;;3.50;3.20;;;6.80;90.80;;;;;;5036012;28;20825;-74
2020/12/04 06:22:05;;;;;;;4.40;3.47;;;6.80;90.70;;;;;;5036169;28;20454;-73
2020/12/04 06:24:32;;;;;;;3.63;3.17;;;6.80;90.80;;;;;;5036324;28;20500;-74
2020/12/04 06:26:58;;;;;;;3.30;3.00;;;6.80;90.80;;;;;;5037108;28;20541;-73
2020/12/04 06:29:24;;;;;;;3.30;2.90;;;6.80;90.90;;;;;;5036090;28;20426;-74
2020/12/04 06:31:50;;;;;;;3.20;2.97;;;6.80;91.00;;;;;;5036136;28;20450;-73
2020/12/04 06:34:19;;;;;;;3.37;2.67;;;6.90;91.00;;;;;;5036001;28;20441;-74
2020/12/04 06:36:46;;;;;;;5.50;3.37;;;6.80;91.00;;;;;;5035685;28;20884;-74
2020/12/04 06:39:28;;;;;;;3.60;3.30;;;6.80;91.30;;;;;;5035873;28;20449;-74
2020/12/04 06:41:55;;;;;;;3.20;3.00;;;6.80;91.00;;;;;;5035913;28;20821;-74
2020/12/04 06:44:22;;;;;;;4.10;2.83;;;6.80;91.00;;;;;;5035825;28;20442;-73
2020/12/04 06:46:50;;;;;;;4.27;3.07;;;6.80;91.10;;;;;;5035731;28;20465;-73
2020/12/04 06:49:38;;;;;;;4.90;3.73;;;6.80;91.20;;;;;;5035440;28;20811;-73
2020/12/04 06:52:09;;;;;;;3.90;3.47;;;6.80;91.20;;;;;;5035787;28;20446;-74
2020/12/04 06:54:38;;;;;;;3.53;3.23;;;6.80;91.30;;;;;;5035761;28;20447;-74
2020/12/04 06:57:04;;;;;;;6.20;3.03;;;6.80;91.30;;;;;;5035473;28;20482;-74
2020/12/04 06:59:33;;;;;;;3.90;3.30;;;6.80;91.40;;;;;;5035368;28;20444;-74
2020/12/04 07:02:05;;;;;;;4.13;3.50;;;6.90;91.50;;;;;;5035478;28;20521;-73
2020/12/04 07:04:34;;;;;;;3.73;3.13;;;6.90;91.40;;;;;;5035710;28;20446;-73
2020/12/04 07:07:05;;;;;;;3.87;3.53;;;6.90;91.50;;;;;;5035135;28;20968;-74
2020/12/04 07:09:31;;;;;;;3.90;3.50;;;6.90;91.50;;;;;;5035646;28;20477;-73
2020/12/04 07:11:58;;;;;;;4.03;2.97;;;6.90;91.50;;;;;;5035391;28;20446;-73
2020/12/04 07:14:26;;;;;;;3.53;3.23;;;6.90;91.60;;;;;;5034954;28;20813;-73
2020/12/04 07:16:53;;;;;;;7.27;3.93;;;7.00;91.70;;;;;;5035121;28;20489;-74
2020/12/04 07:19:19;;;;;;;4.57;3.90;;;6.90;91.60;;;;;;5035200;28;20447;-74
2020/12/04 07:21:46;;;;;;;4.10;3.47;;;6.90;91.70;;;;;;5035179;28;20441;-73
2020/12/04 07:24:12;;;;;;;3.40;3.10;;;6.90;91.80;;;;;;5035366;28;20438;-73
2020/12/04 07:26:43;;;;;;;4.47;3.60;;;6.90;91.90;;;;;;5034890;28;20994;-74
2020/12/04 07:29:10;;;;;;;3.97;3.57;;;7.00;92.00;;;;;;5034983;28;20476;-74
2020/12/04 07:31:36;;;;;;;4.90;3.13;;;7.00;92.00;;;;;;5034380;28;20798;-74
2020/12/04 07:34:03;;;;;;;3.93;3.63;;;7.10;92.00;;;;;;5034785;28;20447;-74
2020/12/04 07:36:29;;;;;;;4.87;3.53;;;7.10;91.90;;;;;;5034563;28;20540;-74
2020/12/04 07:38:58;;;;;;;4.20;3.80;;;7.20;91.80;;;;;;5034618;28;20441;-74
2020/12/04 07:41:26;;;;;;;4.53;4.00;;;7.20;91.70;;;;;;5034668;28;20431;-74
2020/12/04 07:43:58;;;;;;;5.03;3.53;;;7.30;91.70;;;;;;5034889;28;20446;-74
2020/12/04 07:46:24;;;;;;;4.40;3.57;;;7.30;91.60;;;;;;5035348;28;20469;-74
2020/12/04 07:49:01;;;;;;;3.70;3.40;;;7.30;91.70;;;;;;5034629;28;20446;-73
2020/12/04 07:51:27;;;;;;;4.00;3.60;;;7.30;91.80;;;;;;5034317;28;20798;-73
2020/12/04 07:53:56;;;;;;;4.80;3.30;;;7.40;91.90;;;;;;5034289;28;20474;-73
2020/12/04 07:56:24;;;;;;;4.67;3.87;;;7.40;91.90;;;;;;5034428;28;20904;-74
2020/12/04 07:58:57;;;;;;;4.30;3.40;;;7.40;91.90;;;;;;5034498;28;20476;-74
2020/12/04 08:01:23;;;;;;;4.30;3.27;;;7.50;92.00;;;;;;5034461;28;20423;-74
2020/12/04 08:03:50;;;;;;;4.20;3.80;;;7.50;91.90;;;;;;5034383;28;20522;-74
2020/12/04 08:06:21;;;;;;;6.00;4.77;;;7.60;91.80;;;;;;5034435;28;20478;-74
2020/12/04 08:08:47;;;;;;;6.03;4.70;;;7.60;91.80;;;;;;5034377;28;20441;-73
2020/12/04 08:11:16;;;;;;;6.07;4.53;;;7.60;91.70;;;;;;5034284;28;20438;-74
2020/12/04 08:13:45;;;;;;;3.73;3.17;;;7.60;91.70;;;;;;5034179;28;20442;-73
2020/12/04 08:16:11;;;;;;;5.47;3.13;;;7.70;91.70;;;;;;5033943;28;20494;-74
2020/12/04 08:18:37;;;;;;;3.20;2.50;;;7.70;91.50;;;;;;5034063;28;20453;-74
2020/12/04 08:21:05;;;;;;;4.10;2.67;;;7.70;91.50;;;;;;5034098;28;20433;-74
2020/12/04 08:23:31;;;;;;;3.67;2.90;;;7.70;91.50;;;;;;5033998;28;20446;-74
2020/12/04 08:25:57;;;;;;;4.20;2.30;;;7.80;91.50;;;;;;5033548;28;20458;-74
2020/12/04 08:28:25;;;;;;;2.40;2.20;;;7.90;91.40;;;;;;5034306;28;20443;-74
2020/12/04 08:30:51;;;;;;;2.30;2.10;;;7.90;91.10;;;;;;5033812;28;20842;-74
2020/12/04 08:33:17;;;;;;;2.37;1.90;;;7.90;91.00;;;;;;5034584;28;20435;-73
2020/12/04 08:35:44;;;;;;;2.70;1.87;;;7.90;90.70;;;;;;5033846;28;20998;-73
2020/12/04 08:38:12;;;;;;;3.40;1.83;;;8.00;90.50;;;;;;5034213;28;20446;-73
2020/12/04 08:40:40;;;;;;;5.20;1.80;;;8.00;90.40;;;;;;5034062;28;20426;-73
2020/12/04 08:43:12;;;;;;;2.17;1.60;;;8.00;90.70;;;;;;5033899;28;20438;-73
2020/12/04 08:45:41;;;;;;;3.27;1.30;;;8.00;90.30;;;;;;5033739;28;20466;-74
2020/12/04 08:48:09;;;;;;;2.83;1.27;;;8.10;90.10;;;;;;5033738;28;20435;-73
2020/12/04 08:50:43;;;;;;;1.50;1.03;;;8.10;89.80;;;;;;5033773;28;20481;-73
2020/12/04 08:53:11;;;;;;;3.70;1.20;;;8.10;89.60;;;;;;5033825;28;20426;-73
2020/12/04 08:55:37;;;;;;;3.60;1.43;;;8.20;89.50;;;;;;5033526;28;20482;-73
2020/12/04 08:58:03;;;;;;;2.87;1.07;;;8.10;89.00;;;;;;5033745;28;20439;-74
2020/12/04 09:00:32;;;;;;;7.37;1.40;;;8.20;89.20;;;;;;5033510;28;20449;-73
2020/12/04 09:02:59;;;;;;;1.70;1.00;;;8.20;88.70;;;;;;5033431;28;20496;-73
2020/12/04 09:05:25;;;;;;;1.37;1.00;;;8.20;88.80;;;;;;5033500;28;20474;-73
2020/12/04 09:07:52;;;;;;;1.30;1.00;;;8.20;88.50;;;;;;5033407;28;20446;-72
2020/12/04 09:10:20;;;;;;;1.10;0.80;;;8.20;88.40;;;;;;5033433;28;20427;-72
2020/12/04 09:12:48;;;;;;;0.83;0.77;;;8.30;88.10;;;;;;5032967;28;20438;-72
2020/12/04 09:15:17;;;;;;;3.53;1.00;;;8.30;88.80;;;;;;5015451;28;20990;-72
2020/12/04 09:17:45;;;;;;;3.00;1.13;;;8.30;88.10;;;;;;5033129;28;20480;-73
2020/12/04 09:20:15;;;;;;;1.20;1.00;;;8.30;87.70;;;;;;5033153;28;20869;-72
2020/12/04 09:22:48;;;;;;;1.47;1.00;;;8.30;87.70;;;;;;5032965;28;20427;-72
2020/12/04 09:25:16;;;;;;;1.97;1.03;;;8.40;87.70;;;;;;5032517;28;20525;-72
2020/12/04 09:27:44;;;;;;;1.73;0.60;;;8.40;86.70;;;;;;5033289;28;20462;-72
2020/12/04 09:30:13;;;;;;;2.40;0.70;;;8.50;86.40;;;;;;5032891;28;20451;-71
2020/12/04 09:32:42;;;;;;;1.07;0.90;;;8.50;85.70;;;;;;5033463;28;20463;-72
2020/12/04 09:35:09;;;;;;;1.63;0.70;;;8.60;85.80;;;;;;5015296;28;20882;-72
2020/12/04 09:37:38;;;;;;;4.50;0.87;;;8.70;85.70;;;;;;5032518;28;20481;-72
2020/12/04 09:40:10;;;;;;;1.53;0.90;;;8.90;85.40;;;;;;5032855;28;20450;-72
2020/12/04 09:42:37;;;;;;;1.23;1.00;;;9.10;84.80;;;;;;5032548;28;20482;-72
2020/12/04 09:45:05;;;;;;;1.27;0.67;;;9.20;84.30;;;;;;5033151;28;20806;-73
2020/12/04 09:47:32;;;;;;;1.30;0.70;;;9.40;83.40;;;;;;5032774;28;20435;-73
2020/12/04 09:49:58;;;;;;;0.70;0.70;;;9.50;82.80;;;;;;5033125;28;20426;-73
2020/12/04 09:52:25;;;;;;;1.73;0.83;;;9.60;82.40;;;;;;5033069;28;20415;-73
2020/12/04 09:54:52;;;;;;;1.20;1.10;;;9.70;81.40;;;;;;5036382;28;20445;-72
2020/12/04 09:57:18;;;;;;;1.80;1.00;;;9.70;80.60;;;;;;5036605;28;20517;-72
2020/12/04 09:59:45;;;;;;;3.93;1.20;;;9.70;80.20;;;;;;5036785;28;20431;-73
2020/12/04 10:02:12;;;;;;;1.37;1.07;;;9.70;80.50;;;;;;5036356;28;20430;-72
2020/12/04 10:04:39;;;;;;;1.03;0.90;;;9.60;81.20;;;;;;5036577;28;20422;-72
2020/12/04 10:07:05;;;;;;;2.90;1.07;;;9.60;81.50;;;;;;5036226;28;20845;-72
2020/12/04 10:09:32;;;;;;;1.33;1.10;;;9.70;81.60;;;;;;5036547;28;20422;-74
2020/12/04 10:11:59;;;;;;;1.50;1.03;;;9.70;81.30;;;;;;5036412;28;20446;-74
2020/12/04 10:14:25;;;;;;;2.30;1.00;;;9.70;81.30;;;;;;5036442;28;20433;-75
2020/12/04 10:16:52;;;;;;;1.50;1.00;;;9.70;80.80;;;;;;5035867;28;20987;-75
2020/12/04 10:19:19;;;;;;;1.10;0.90;;;9.70;80.20;;;;;;5036338;28;20896;-75
2020/12/04 10:21:46;;;;;;;0.87;0.80;;;9.70;80.50;;;;;;5036168;28;20513;-75
2020/12/04 10:24:14;;;;;;;2.60;0.73;;;9.80;80.10;;;;;;5036965;28;20487;-75
2020/12/04 10:26:42;;;;;;;1.17;1.07;;;9.80;80.20;;;;;;5036409;28;20454;-75
2020/12/04 10:29:10;;;;;;;3.50;0.90;;;9.90;80.10;;;;;;5036026;28;20434;-75
2020/12/04 10:31:36;;;;;;;1.50;0.80;;;10.00;78.90;;;;;;5036009;28;20431;-75
2020/12/04 10:34:04;;;;;;;0.70;0.60;;;10.20;78.00;;;;;;5035631;28;20959;-75
2020/12/04 10:36:30;;;;;;;2.77;1.00;;;10.30;76.80;;;;;;5035689;28;20494;-75
2020/12/04 10:38:57;;;;;;;1.00;0.70;;;10.50;76.70;;;;;;5035952;28;20426;-75
2020/12/04 10:41:23;;;;;;;3.03;0.50;;;10.60;75.20;;;;;;5036005;28;20427;-75
2020/12/04 10:43:50;;;;;;;1.00;0.77;;;10.60;74.90;;;;;;5035893;28;20430;-75
2020/12/04 10:46:17;;;;;;;0.70;0.67;;;10.80;74.70;;;;;;5035641;28;20458;-75
2020/12/04 10:48:44;;;;;;;1.40;0.40;;;10.80;74.10;;;;;;5035706;28;20430;-75
2020/12/04 10:51:10;;;;;;;0.73;0.50;;;10.70;73.20;;;;;;5035634;28;20449;-75
2020/12/04 10:53:37;;;;;;;0.50;0.47;;;10.60;73.50;;;;;;5035218;28;20449;-76
2020/12/04 10:56:03;;;;;;;2.10;0.50;;;10.80;74.10;;;;;;5035368;28;20482;-75
2020/12/04 10:58:29;;;;;;;0.83;0.60;;;10.90;73.60;;;;;;5035240;28;20928;-75
2020/12/04 11:00:55;;;;;;;2.40;0.70;;;10.80;72.00;;;;;;5035449;28;20434;-75
2020/12/04 11:03:31;;;;;;;0.57;0.40;;;10.80;72.00;;;;;;5035353;28;20438;-75
2020/12/04 11:05:57;;;;;;;3.30;0.50;;;10.70;72.10;;;;;;5033894;28;20991;-75
2020/12/04 11:08:23;;;;;;;0.77;0.60;;;10.60;72.70;;;;;;5035363;28;20438;-75
2020/12/04 11:10:49;;;;;;;0.50;0.30;;;10.70;72.60;;;;;;5035274;28;20184;-75
2020/12/04 11:13:15;;;;;;;1.37;0.50;;;10.80;72.20;;;;;;5035310;28;20430;-75
2020/12/04 11:15:42;;;;;;;1.87;0.50;;;10.90;72.50;;;;;;5035303;28;20466;-75
2020/12/04 11:18:08;;;;;;;3.13;0.60;;;10.80;72.00;;;;;;5035199;28;20471;-75
2020/12/04 11:20:35;;;;;;;2.00;0.67;;;10.80;72.10;;;;;;5035124;28;20446;-75
2020/12/04 11:23:01;;;;;;;1.47;0.70;;;10.70;71.30;;;;;;5035143;28;20427;-75
2020/12/04 11:25:28;;;;;;;1.27;0.50;;;10.70;69.60;;;;;;5035005;28;20465;-73
2020/12/04 11:27:54;;;;;;;1.63;0.80;;;10.70;68.40;;;;;;5034937;28;20450;-73
2020/12/04 11:30:22;;;;;;;1.43;0.60;;;10.80;69.40;;;;;;5035015;28;20457;-72
2020/12/04 11:32:50;;;;;;;2.60;0.77;;;10.90;69.30;;;;;;5034974;28;20462;-72
2020/12/04 11:35:17;;;;;;;1.00;0.70;;;11.00;68.80;;;;;;5034736;28;20489;-73
2020/12/04 11:37:46;;;;;;;2.27;0.70;;;11.10;68.80;;;;;;5035077;28;20482;-74
2020/12/04 11:40:15;;;;;;;1.23;0.60;;;11.20;68.30;;;;;;5034928;28;20445;-73
2020/12/04 11:42:43;;;;;;;0.83;0.50;;;11.40;68.10;;;;;;5034708;28;20452;-74
2020/12/04 11:45:11;;;;;;;1.37;0.57;;;11.60;67.40;;;;;;5034455;28;20474;-74
2020/12/04 11:47:37;;;;;;;1.43;0.40;;;11.80;66.90;;;;;;5034972;28;20438;-74
2020/12/04 11:50:05;;;;;;;1.13;0.67;;;12.00;65.80;;;;;;5034598;28;20442;-72
2020/12/04 11:52:31;;;;;;;0.90;0.60;;;12.20;65.10;;;;;;5034301;28;20936;-73
2020/12/04 11:54:58;;;;;;;1.63;0.80;;;12.50;63.80;;;;;;5034450;28;20804;-74
2020/12/04 11:57:25;;;;;;;0.83;0.60;;;12.70;62.20;;;;;;5034398;28;20474;-74
2020/12/04 11:59:51;;;;;;;1.87;0.50;;;12.90;62.30;;;;;;5034544;28;20423;-74
2020/12/04 12:02:18;;;;;;;0.77;0.50;;;13.00;60.40;;;;;;5034425;28;20462;-73
2020/12/04 12:04:44;;;;;;;1.93;0.70;;;13.00;60.40;;;;;;5034389;28;20457;-73
2020/12/04 12:07:10;;;;;;;2.70;0.80;;;13.00;60.40;;;;;;5034197;28;20459;-73
2020/12/04 12:09:36;;;;;;;2.67;0.40;;;12.90;60.20;;;;;;5034280;28;20442;-74
2020/12/04 12:12:04;;;;;;;1.80;0.70;;;12.70;59.60;;;;;;5033926;28;20936;-73
2020/12/04 12:14:30;;;;;;;3.10;1.17;;;12.60;59.70;;;;;;5033899;28;20423;-73
2020/12/04 12:16:56;;;;;;;1.43;0.60;;;12.60;60.00;;;;;;5033718;28;20494;-73
2020/12/04 12:19:22;;;;;;;0.63;0.40;;;12.60;59.90;;;;;;5035116;28;20443;-73
2020/12/04 12:21:49;;;;;;;0.83;0.50;;;12.60;59.80;;;;;;5034557;28;20423;-74
2020/12/04 12:24:16;;;;;;;1.53;0.83;;;12.50;59.80;;;;;;5033730;28;20809;-74
2020/12/04 12:26:42;;;;;;;1.33;0.40;;;12.40;59.70;;;;;;5033976;28;20466;-76
2020/12/04 12:29:10;;;;;;;0.80;0.40;;;12.20;60.20;;;;;;5034126;28;20435;-73
2020/12/04 12:31:36;;;;;;;1.90;0.77;;;12.00;60.50;;;;;;5033575;28;20457;-73
2020/12/04 12:34:02;;;;;;;1.27;0.57;;;12.00;61.20;;;;;;5033809;28;20435;-73
2020/12/04 12:36:28;;;;;;;0.60;0.50;;;11.90;61.20;;;;;;5033286;28;20494;-75
2020/12/04 12:38:56;;;;;;;3.47;0.80;;;11.70;60.80;;;;;;5033448;28;20893;-73
2020/12/04 12:41:22;;;;;;;2.30;0.80;;;11.60;61.80;;;;;;5033490;28;20434;-74
2020/12/04 12:43:49;;;;;;;3.47;0.77;;;11.30;62.20;;;;;;5033757;28;20423;-73
2020/12/04 12:46:16;;;;;;;0.70;0.60;;;11.10;62.80;;;;;;5033618;28;20462;-74
2020/12/04 12:48:42;;;;;;;0.80;0.50;;;11.00;63.30;;;;;;5033648;28;20500;-73
2020/12/04 12:51:08;;;;;;;1.47;0.60;;;10.90;64.30;;;;;;5033314;28;20920;-73
2020/12/04 12:53:34;;;;;;;1.17;1.07;;;10.80;64.90;;;;;;5033593;28;20434;-73
2020/12/04 12:56:01;;;;;;;3.10;2.27;;;10.80;65.80;;;;;;5033675;28;20494;-73